Time;durP1;ratioP1;P1;durP2;ratioP2;P2;SDS_P1;SDS_P2;PMS_P1;PMS_P2;Temp;Humidity;BMP_temperature;BMP_pressure;BME280_temperature;BME280_humidity;BME280_pressure;Samples;Min_cycle;Max_cycle;Signal;HPM_P1;HPM_P2
2023/04/06 00:01:15;;;;;;;;;19.25;17.00;;;;;13.81;36.76;101066.59;5076300;27;45591;-77
2023/04/06 00:03:40;;;;;;;;;18.50;17.00;;;;;13.80;36.81;101071.03;5075299;28;48327;-78
2023/04/06 00:06:08;;;;;;;;;19.75;18.75;;;;;13.79;37.14;101057.97;5076792;28;46172;-83
2023/04/06 00:08:34;;;;;;;;;18.50;16.00;;;;;13.78;37.25;101054.50;5077076;27;45924;-87
2023/04/06 00:11:00;;;;;;;;;21.00;18.00;;;;;13.79;37.13;101058.81;5058917;28;45594;-76
2023/04/06 00:13:25;;;;;;;;;22.00;18.75;;;;;13.73;37.35;101053.19;5079333;27;47223;-85
2023/04/06 00:15:51;;;;;;;;;25.50;20.25;;;;;13.66;37.52;101055.44;5079494;27;46104;-76
2023/04/06 00:18:16;;;;;;;;;17.75;17.00;;;;;13.60;38.32;101066.47;5075634;28;45621;-83
2023/04/06 00:20:42;;;;;;;;;20.00;18.75;;;;;13.53;38.13;101059.97;5092449;27;45649;-83
2023/04/06 00:26:58;;;;;;;;;27.25;21.25;;;;;13.40;38.71;101062.69;5076706;28;45739;-82
2023/04/06 00:29:23;;;;;;;;;20.50;18.00;;;;;13.20;38.71;101029.16;5065874;27;46154;-79
2023/04/06 00:31:48;;;;;;;;;24.25;22.00;;;;;13.39;38.70;101050.47;5075332;28;46028;-81
2023/04/06 00:34:15;;;;;;;;;22.50;18.00;;;;;13.37;39.19;101048.94;5075461;28;45678;-78
2023/04/06 00:36:41;;;;;;;;;21.50;21.00;;;;;13.39;39.31;101044.38;5076127;28;46915;-78
2023/04/06 00:39:06;;;;;;;;;23.25;21.25;;;;;13.34;39.38;101044.72;5083473;27;45841;-73
2023/04/06 00:41:32;;;;;;;;;22.00;20.00;;;;;13.22;39.71;101023.78;5082059;27;45860;-78
2023/04/06 00:43:57;;;;;;;;;26.25;22.50;;;;;13.35;39.45;101038.50;5081491;27;45672;-84
2023/04/06 00:46:23;;;;;;;;;22.50;21.50;;;;;13.35;39.45;101043.78;5078075;28;45822;-75
2023/04/06 00:48:49;;;;;;;;;17.50;16.50;;;;;13.32;39.67;101028.22;5077943;27;45567;-80
2023/04/06 00:51:14;;;;;;;;;21.50;18.50;;;;;13.30;40.26;101035.41;5078000;28;45512;-75
2023/04/06 00:57:01;;;;;;;;;22.50;21.50;;;;;13.19;40.26;101014.31;5077318;28;45563;-87
2023/04/06 00:59:28;;;;;;;;;20.50;18.75;;;;;13.24;40.29;101021.84;5074972;28;45620;-78
2023/04/06 01:01:53;;;;;;;;;23.00;18.25;;;;;13.17;40.50;101008.31;5076370;27;45631;-78
2023/04/06 01:04:19;;;;;;;;;21.00;15.50;;;;;13.24;40.48;101017.44;5076665;28;45580;-83
2023/04/06 01:06:45;;;;;;;;;26.75;20.25;;;;;13.26;40.17;101015.53;5075511;27;45624;-86
2023/04/06 01:09:11;;;;;;;;;22.00;19.50;;;;;13.29;40.60;101012.66;5076097;27;45635;-84
2023/04/06 01:11:36;;;;;;;;;23.00;21.75;;;;;13.33;40.77;101014.09;5075640;27;45933;-81
2023/04/06 01:14:03;;;;;;;;;22.75;19.75;;;;;13.27;40.68;101004.06;5075064;27;45606;-83
2023/04/06 01:16:28;;;;;;;;;17.25;16.50;;;;;13.25;40.66;101000.69;5075555;27;45745;-82
2023/04/06 01:19:06;;;;;;;;;23.00;21.00;;;;;13.18;41.13;101004.75;5073733;28;45791;-78
2023/04/06 01:21:31;;;;;;;;;25.00;20.50;;;;;13.15;41.20;101009.41;5076010;27;45694;-84
2023/04/06 01:31:05;;;;;;;;;21.50;21.50;;;;;13.05;41.63;101001.34;5013262;28;45662;-80
2023/04/06 01:33:31;;;;;;;;;24.75;19.75;;;;;12.99;41.38;101000.00;5009893;28;45850;-85
2023/04/06 01:36:00;;;;;;;;;22.75;19.75;;;;;12.89;41.61;100971.88;5012734;28;46531;-85
2023/04/06 01:38:28;;;;;;;;;23.50;21.00;;;;;13.00;41.68;100985.91;5029412;28;46134;-79
2023/04/06 01:44:32;;;;;;;;;;;;;;;;;;;;;
2023/04/06 01:51:07;;;;;;;;;25.25;21.00;;;;;12.95;41.69;100964.38;4916547;28;45995;-80
2023/04/06 02:07:08;;;;;;;;;21.75;20.25;;;;;12.85;42.59;100983.56;4914361;28;45755;-79
2023/04/06 02:09:38;;;;;;;;;25.50;21.00;;;;;12.83;42.80;100985.47;4937785;28;45798;-76
2023/04/06 02:12:06;;;;;;;;;26.00;21.00;;;;;12.80;42.81;100983.06;4937729;28;45804;-81
2023/04/06 02:14:31;;;;;;;;;25.25;22.50;;;;;12.78;43.30;100980.56;4954087;28;46185;-77
2023/04/06 02:16:59;;;;;;;;;22.75;19.50;;;;;12.74;43.12;100970.41;4954119;28;45835;-81
2023/04/06 02:19:25;;;;;;;;;22.25;21.25;;;;;12.76;43.41;100966.69;4965260;28;46012;-76
2023/04/06 02:21:50;;;;;;;;;27.75;21.25;;;;;12.79;43.17;100973.53;4976422;28;48280;-76
2023/04/06 02:24:16;;;;;;;;;26.25;23.00;;;;;12.75;43.06;100956.28;4976143;28;47909;-76
2023/04/06 02:26:41;;;;;;;;;22.00;21.25;;;;;12.84;43.15;100960.88;5000337;28;46147;-77
2023/04/06 02:29:10;;;;;;;;;24.00;21.00;;;;;12.85;43.20;100954.63;5010192;28;45969;-87
2023/04/06 02:31:36;;;;;;;;;28.25;23.50;;;;;12.82;43.15;100941.72;4991959;28;46457;-79
2023/04/06 02:34:01;;;;;;;;;21.00;18.25;;;;;12.83;42.97;100941.63;4971346;28;46366;-78
2023/04/06 02:36:26;;;;;;;;;25.00;23.50;;;;;12.88;43.00;100944.75;4980191;28;45815;-78
2023/04/06 02:38:52;;;;;;;;;24.25;22.00;;;;;12.88;43.11;100936.84;5073137;27;45795;-73
2023/04/06 02:41:17;;;;;;;;;24.00;21.75;;;;;12.92;42.76;100930.41;5088163;27;47398;-77
2023/04/06 02:43:43;;;;;;;;;25.25;22.00;;;;;12.89;42.65;100930.66;5073075;28;45710;-81
2023/04/06 02:46:08;;;;;;;;;20.75;20.00;;;;;13.01;42.78;100940.22;5072787;28;46110;-75
2023/04/06 02:48:36;;;;;;;;;25.75;20.50;;;;;13.03;42.84;100935.69;5076703;28;45596;-83
2023/04/06 02:51:04;;;;;;;;;20.25;20.00;;;;;13.03;42.79;100932.22;5081790;28;46419;-83
2023/04/06 02:53:29;;;;;;;;;24.50;22.00;;;;;13.08;42.84;100953.75;5080722;28;46938;-87
2023/04/06 02:55:55;;;;;;;;;22.50;21.00;;;;;13.03;42.52;100962.00;5076661;28;45755;-87
2023/04/06 02:58:21;;;;;;;;;29.75;24.25;;;;;12.98;42.91;100963.28;5074876;27;45630;-80
2023/04/06 03:00:46;;;;;;;;;26.25;22.25;;;;;12.91;43.21;100957.66;5073797;27;45943;-85
2023/04/06 03:03:11;;;;;;;;;20.75;18.50;;;;;12.88;43.10;100950.00;5074164;27;46528;-79
2023/04/06 03:05:37;;;;;;;;;24.50;20.75;;;;;12.90;42.98;100947.28;5074069;27;45862;-79
2023/04/06 03:08:02;;;;;;;;;17.25;14.50;;;;;12.87;43.06;100958.00;5073498;27;45700;-77
2023/04/06 03:10:28;;;;;;;;;23.00;20.25;;;;;12.82;43.05;100947.00;5073272;27;45801;-77
2023/04/06 03:12:53;;;;;;;;;25.00;22.75;;;;;12.71;43.41;100924.13;5073533;27;45904;-86
2023/04/06 03:15:19;;;;;;;;;24.00;21.50;;;;;12.80;42.85;100939.22;5076873;27;45634;-83
2023/04/06 03:17:44;;;;;;;;;28.75;22.25;;;;;12.84;43.35;100951.19;5077482;27;45478;-77
2023/04/06 03:20:10;;;;;;;;;17.25;15.50;;;;;12.83;43.06;100936.38;5075687;28;45684;-80
2023/04/06 03:22:35;;;;;;;;;21.50;20.00;;;;;12.88;43.38;100938.66;5076278;28;47218;-78
2023/04/06 03:28:23;;;;;;;;;22.25;21.25;;;;;12.87;43.51;100952.75;5080885;28;45335;-76
2023/04/06 03:30:49;;;;;;;;;21.33;19.00;;;;;12.78;43.51;100949.03;5081140;27;47200;-79
2023/04/06 03:33:14;;;;;;;;;20.00;19.50;;;;;12.74;43.56;100952.00;5081582;27;46200;-79
2023/04/06 03:35:40;;;;;;;;;25.75;23.25;;;;;12.70;43.45;100937.38;5063190;28;46087;-73
2023/04/06 03:38:05;;;;;;;;;26.50;22.00;;;;;12.70;43.47;100937.38;5085287;27;45578;-78
2023/04/06 03:40:31;;;;;;;;;21.50;17.25;;;;;12.75;43.43;100936.09;5087266;27;46439;-81
2023/04/06 03:42:57;;;;;;;;;28.75;22.50;;;;;12.72;43.48;100919.72;5088193;27;46221;-72
2023/04/06 03:45:22;;;;;;;;;24.50;21.75;;;;;12.75;43.52;100925.56;5086759;27;45533;-73
2023/04/06 03:47:47;;;;;;;;;23.00;20.00;;;;;12.75;43.30;100922.09;5085435;28;45877;-84
2023/04/06 03:50:13;;;;;;;;;23.00;21.00;;;;;12.80;43.21;100933.09;5083512;27;46449;-80
2023/04/06 03:52:38;;;;;;;;;22.00;19.75;;;;;12.84;42.96;100924.06;5079202;28;46433;-82
2023/04/06 03:58:25;;;;;;;;;25.50;21.25;;;;;12.86;42.96;100919.50;5077599;28;45565;-78
2023/04/06 04:00:51;;;;;;;;;23.00;21.25;;;;;12.91;42.99;100927.88;5076757;28;46421;-81
2023/04/06 04:03:16;;;;;;;;;25.50;20.25;;;;;12.90;42.82;100932.28;5076788;27;45642;-86
2023/04/06 04:05:42;;;;;;;;;24.00;18.50;;;;;12.89;42.92;100933.28;5076390;28;45535;-81
2023/04/06 04:08:08;;;;;;;;;25.75;24.25;;;;;12.88;42.63;100933.38;5076769;27;45830;-85
2023/04/06 04:13:55;;;;;;;;;27.50;19.75;;;;;12.90;42.82;100918.34;5076304;28;46123;-80
2023/04/06 04:16:21;;;;;;;;;25.25;21.50;;;;;12.91;42.58;100918.19;5078001;28;45683;-82
2023/04/06 04:18:48;;;;;;;;;24.75;22.50;;;;;12.95;42.58;100916.19;5077994;28;45553;-81
2023/04/06 04:21:13;;;;;;;;;20.00;17.75;;;;;13.00;42.86;100917.53;5077310;28;45752;-78
2023/04/06 04:23:39;;;;;;;;;22.00;21.00;;;;;13.04;42.44;100911.06;5076123;27;46526;-83
2023/04/06 04:26:04;;;;;;;;;17.25;17.00;;;;;13.05;42.30;100917.16;5076275;28;45678;-84
2023/04/06 04:28:30;;;;;;;;;24.50;20.75;;;;;13.06;42.63;100900.44;5076257;27;45862;-87
2023/04/06 04:30:55;;;;;;;;;19.25;17.00;;;;;13.12;42.51;100914.94;5074355;28;45556;-81
2023/04/06 04:33:21;;;;;;;;;20.50;17.25;;;;;13.12;42.55;100913.13;5075837;27;45604;-85
2023/04/06 04:35:46;;;;;;;;;17.25;16.50;;;;;13.15;42.61;100917.31;5075343;27;45966;-82
2023/04/06 04:38:11;;;;;;;;;18.00;17.75;;;;;13.13;42.59;100914.81;5076486;28;45506;-79
2023/04/06 04:44:12;;;;;;;;;25.50;16.25;;;;;13.11;42.75;100913.22;5067158;28;45839;-86
2023/04/06 04:46:41;;;;;;;;;23.00;18.50;;;;;13.08;42.79;100911.66;5076093;28;45932;-81
2023/04/06 04:49:07;;;;;;;;;21.25;20.75;;;;;13.07;42.83;100924.91;5076641;27;45705;-84
2023/04/06 04:51:33;;;;;;;;;20.00;17.50;;;;;13.06;42.83;100923.28;5076903;28;47506;-85
2023/04/06 04:54:02;;;;;;;;;24.50;21.75;;;;;12.97;42.93;100930.06;5081350;27;46117;-84
2023/04/06 04:56:28;;;;;;;;;22.25;21.00;;;;;12.96;42.98;100944.16;5082981;28;45673;-85
2023/04/06 04:58:54;;;;;;;;;24.00;20.00;;;;;12.89;43.13;100937.69;5085517;27;45550;-81
2023/04/06 05:01:19;;;;;;;;;22.00;20.25;;;;;12.90;43.51;100942.00;5082095;28;45851;-82
2023/04/06 05:03:46;;;;;;;;;20.50;16.25;;;;;12.91;43.30;100933.97;5079597;27;45601;-89
2023/04/06 05:06:11;;;;;;;;;25.50;21.25;;;;;12.93;43.21;100941.75;5090566;27;45877;-71
2023/04/06 05:08:36;;;;;;;;;21.25;20.75;;;;;12.92;43.55;100942.72;5073596;28;45868;-71
2023/04/06 05:14:24;;;;;;;;;23.75;18.25;;;;;12.87;43.31;100944.84;5073881;28;46257;-74
2023/04/06 05:16:49;;;;;;;;;20.75;16.75;;;;;12.80;43.38;100951.50;5074009;27;45677;-72
2023/04/06 05:19:15;;;;;;;;;23.75;20.50;;;;;12.74;43.44;100946.75;5071652;28;45553;-72
2023/04/06 05:21:41;;;;;;;;;21.50;17.75;;;;;12.70;43.85;100955.78;5074056;28;45779;-72
2023/04/06 05:24:06;;;;;;;;;20.25;17.25;;;;;12.69;43.66;100949.69;5073523;28;46991;-73
2023/04/06 05:26:32;;;;;;;;;23.50;20.25;;;;;12.67;44.00;100942.88;5073662;27;45542;-71
2023/04/06 05:28:58;;;;;;;;;19.25;15.50;;;;;12.68;43.66;100950.66;5073450;28;45509;-72
2023/04/06 05:31:23;;;;;;;;;19.50;16.00;;;;;12.69;43.73;100954.94;5073623;27;46839;-72
2023/04/06 05:33:49;;;;;;;;;19.75;17.50;;;;;12.66;43.67;100954.34;5072207;28;46702;-71
2023/04/06 05:36:14;;;;;;;;;18.00;16.00;;;;;12.61;43.94;100960.78;5072765;28;45609;-72
2023/04/06 05:38:40;;;;;;;;;21.50;17.25;;;;;12.66;44.20;100963.06;5073277;27;45762;-73
2023/04/06 05:44:27;;;;;;;;;22.50;19.50;;;;;12.73;44.08;100960.84;5068197;28;45663;-73
2023/04/06 05:47:26;;;;;;;;;17.25;15.50;;;;;12.74;44.30;100955.44;5073509;27;45501;-74
2023/04/06 05:53:28;;;;;;;;;19.75;19.00;;;;;12.82;44.49;100957.50;4951692;28;46278;-74
2023/04/06 05:59:16;;;;;;;;;18.75;17.25;;;;;12.84;44.62;100963.50;4951679;28;45861;-72
2023/04/06 06:01:41;;;;;;;;;17.25;16.00;;;;;12.81;45.00;100963.72;4951876;28;45910;-73
2023/04/06 06:04:07;;;;;;;;;22.25;19.50;;;;;12.78;44.88;100961.31;4952250;28;45997;-73
2023/04/06 06:06:32;;;;;;;;;20.50;18.75;;;;;12.77;45.00;100949.97;4951838;28;46371;-73
2023/04/06 06:09:04;;;;;;;;;16.75;14.75;;;;;12.82;44.69;100960.97;4951875;28;45652;-75
2023/04/06 06:14:51;;;;;;;;;16.50;16.00;;;;;12.90;44.78;100958.59;4951740;28;45998;-73
2023/04/06 06:17:22;;;;;;;;;21.00;18.50;;;;;12.94;44.81;100954.81;4951695;28;47146;-72
2023/04/06 06:19:47;;;;;;;;;17.00;16.00;;;;;13.00;45.03;100958.78;4951244;28;45669;-74
2023/04/06 06:22:13;;;;;;;;;22.00;20.00;;;;;13.02;44.80;100947.16;4951959;28;45884;-73
2023/04/06 06:24:49;;;;;;;;;18.00;16.00;;;;;13.06;44.79;100949.56;4951508;28;46340;-72
2023/04/06 06:30:36;;;;;;;;;22.25;19.50;;;;;13.17;44.87;100954.91;5055849;28;45859;-72
2023/04/06 06:33:07;;;;;;;;;33.75;29.25;;;;;13.19;45.22;100953.81;5072275;27;45697;-73
2023/04/06 06:35:35;;;;;;;;;24.25;20.50;;;;;13.21;45.37;100945.81;5072917;27;46452;-73
2023/04/06 06:38:00;;;;;;;;;20.75;18.25;;;;;13.28;45.36;100955.72;5070574;28;47329;-72
2023/04/06 06:40:26;;;;;;;;;25.75;23.75;;;;;13.26;45.55;100943.66;5072381;27;46258;-72
2023/04/06 06:42:52;;;;;;;;;24.00;21.25;;;;;13.35;45.10;100954.31;5072901;27;45879;-72
2023/04/06 06:45:18;;;;;;;;;24.50;21.25;;;;;13.38;45.54;100953.25;5072269;27;46352;-73
2023/04/06 06:47:43;;;;;;;;;19.25;16.00;;;;;13.37;45.45;100941.88;5074293;28;46248;-71
2023/04/06 06:50:09;;;;;;;;;20.25;16.50;;;;;13.41;45.47;100940.69;5074433;28;46319;-71
2023/04/06 06:52:46;;;;;;;;;16.75;15.00;;;;;13.44;45.35;100940.41;5097530;22;45532;-74
2023/04/06 06:55:12;;;;;;;;;65.25;50.00;;;;;13.38;46.03;100925.13;5072399;27;45740;-74
2023/04/06 06:57:38;;;;;;;;;23.75;21.25;;;;;13.49;45.92;100941.88;5071348;27;46295;-72
2023/04/06 07:00:05;;;;;;;;;22.00;20.50;;;;;13.52;45.77;100944.25;5071503;27;45615;-73
2023/04/06 07:02:30;;;;;;;;;21.50;20.00;;;;;13.53;45.63;100940.69;5072205;27;45786;-73
2023/04/06 07:04:56;;;;;;;;;22.00;19.00;;;;;13.53;46.10;100943.31;5072152;27;45670;-73
2023/04/06 07:07:21;;;;;;;;;24.00;23.50;;;;;13.52;46.29;100939.00;5072320;28;46205;-73
2023/04/06 07:09:47;;;;;;;;;23.00;20.00;;;;;13.53;46.00;100936.25;5071339;28;45760;-73
2023/04/06 07:12:12;;;;;;;;;20.75;18.00;;;;;13.59;46.04;100943.69;5069368;27;45679;-73
2023/04/06 07:14:37;;;;;;;;;21.00;20.50;;;;;13.58;46.38;100930.63;5087634;27;47293;-73
2023/04/06 07:17:03;;;;;;;;;22.00;21.00;;;;;13.61;46.44;100939.09;5072009;27;45979;-74
2023/04/06 07:19:28;;;;;;;;;23.75;18.75;;;;;13.63;46.53;100939.00;5086490;27;46039;-73
2023/04/06 07:21:54;;;;;;;;;23.75;20.25;;;;;13.65;46.66;100951.09;5072126;27;45866;-73
2023/04/06 07:24:19;;;;;;;;;19.25;18.00;;;;;13.65;46.31;100947.63;5070906;28;47347;-74
2023/04/06 07:26:45;;;;;;;;;24.50;22.50;;;;;13.64;46.84;100943.31;5070187;28;47044;-73
2023/04/06 07:29:10;;;;;;;;;24.75;19.75;;;;;13.68;46.64;100944.75;5069808;27;45807;-73
2023/04/06 07:31:39;;;;;;;;;28.75;23.75;;;;;13.69;46.86;100943.78;5071485;27;45812;-73
2023/04/06 07:34:04;;;;;;;;;20.25;19.00;;;;;13.69;46.71;100938.50;5066891;28;47018;-72
2023/04/06 07:36:30;;;;;;;;;22.00;19.25;;;;;13.64;47.42;100949.41;5071479;28;45752;-73
2023/04/06 07:38:55;;;;;;;;;22.00;18.25;;;;;13.57;47.64;100947.38;5070553;27;45832;-73
2023/04/06 07:41:21;;;;;;;;;17.50;16.50;;;;;13.53;48.18;100945.94;5070471;27;45726;-73
2023/04/06 07:43:46;;;;;;;;;23.75;19.75;;;;;13.51;48.68;100951.31;5070554;28;48475;-73
2023/04/06 07:46:12;;;;;;;;;19.00;19.00;;;;;13.47;49.09;100949.03;5067135;27;46363;-72
2023/04/06 07:48:37;;;;;;;;;22.25;19.50;;;;;13.42;49.60;100952.88;5070823;27;45733;-73
2023/04/06 07:51:04;;;;;;;;;22.75;22.00;;;;;13.35;49.63;100945.56;5069907;28;45797;-74
2023/04/06 07:53:30;;;;;;;;;19.50;16.75;;;;;13.35;49.42;100943.78;5086990;27;46434;-73
2023/04/06 07:55:56;;;;;;;;;27.00;22.75;;;;;13.36;50.50;100949.88;5071207;27;46584;-74
2023/04/06 07:58:21;;;;;;;;;20.25;15.50;;;;;13.34;50.78;100946.50;5071231;27;45706;-74
2023/04/06 08:00:47;;;;;;;;;21.50;18.00;;;;;13.33;50.29;100942.22;5070836;27;45740;-73
2023/04/06 08:03:12;;;;;;;;;20.00;19.75;;;;;13.28;50.92;100942.56;5070018;27;46353;-73
2023/04/06 08:05:38;;;;;;;;;27.25;22.50;;;;;13.18;51.82;100948.66;5071064;27;46840;-73
2023/04/06 08:08:03;;;;;;;;;23.25;22.25;;;;;13.13;51.44;100941.13;5071233;28;45660;-73
2023/04/06 08:10:29;;;;;;;;;20.75;17.00;;;;;13.11;51.95;100943.00;5070587;28;45693;-71
2023/04/06 08:12:54;;;;;;;;;23.75;20.50;;;;;13.06;51.83;100941.69;5070889;28;45657;-73
2023/04/06 08:15:20;;;;;;;;;24.00;18.25;;;;;13.06;52.28;100941.69;5071285;27;46283;-72
2023/04/06 08:17:45;;;;;;;;;20.25;18.25;;;;;13.09;52.45;100939.66;5053044;28;45787;-74
2023/04/06 08:20:11;;;;;;;;;25.50;22.00;;;;;13.04;52.50;100933.91;5065287;28;45834;-73
2023/04/06 08:22:36;;;;;;;;;25.50;21.75;;;;;13.04;52.47;100944.41;5070811;27;46081;-73
2023/04/06 08:25:01;;;;;;;;;30.00;24.50;;;;;12.96;53.10;100942.34;5070885;27;46241;-73
2023/04/06 08:27:27;;;;;;;;;23.00;22.00;;;;;12.95;53.24;100945.13;5070576;27;45899;-73
2023/04/06 08:29:52;;;;;;;;;27.75;23.25;;;;;12.98;53.32;100943.09;5070512;27;45753;-73
2023/04/06 08:32:18;;;;;;;;;26.50;25.50;;;;;13.02;52.86;100946.31;5069622;28;46509;-72
2023/04/06 08:34:43;;;;;;;;;25.50;21.50;;;;;13.11;53.14;100944.78;5067192;28;46197;-73
2023/04/06 08:37:08;;;;;;;;;25.50;24.00;;;;;13.21;53.42;100951.91;5068747;27;46416;-72
2023/04/06 08:39:34;;;;;;;;;27.50;25.50;;;;;13.20;53.27;100952.00;5069707;28;45947;-72
2023/04/06 08:42:02;;;;;;;;;25.75;23.75;;;;;13.12;53.48;100951.78;5086253;27;46961;-72
2023/04/06 08:44:29;;;;;;;;;26.75;24.25;;;;;13.04;53.72;100950.53;5070797;27;45911;-74
2023/04/06 08:46:55;;;;;;;;;25.25;24.25;;;;;12.99;53.90;100957.94;5086436;27;46059;-74
2023/04/06 08:49:21;;;;;;;;;31.50;29.25;;;;;12.95;54.16;100964.38;5070029;27;45722;-74
2023/04/06 08:51:47;;;;;;;;;30.25;24.00;;;;;12.93;54.39;100970.69;5070518;27;45991;-73
2023/04/06 08:54:12;;;;;;;;;27.75;27.00;;;;;12.93;54.68;100968.06;5066203;27;46586;-71
2023/04/06 08:56:39;;;;;;;;;27.50;25.50;;;;;12.94;54.66;100967.13;5085994;27;45722;-72
2023/04/06 08:59:06;;;;;;;;;25.50;22.50;;;;;12.97;54.16;100972.13;5069296;27;46159;-73
2023/04/06 09:01:34;;;;;;;;;23.50;21.25;;;;;12.99;54.78;100980.75;5070660;27;46542;-74
2023/04/06 09:04:00;;;;;;;;;23.00;22.00;;;;;13.00;55.05;100975.38;5070476;27;46203;-73
2023/04/06 09:06:30;;;;;;;;;28.00;24.00;;;;;13.02;54.76;100962.94;5070507;27;45664;-73
2023/04/06 09:08:57;;;;;;;;;31.00;23.25;;;;;13.02;54.84;100949.78;5069314;27;46115;-73
2023/04/06 09:11:24;;;;;;;;;25.50;21.25;;;;;13.06;55.16;100955.69;5081368;27;47549;-73
2023/04/06 09:13:53;;;;;;;;;19.75;17.00;;;;;13.07;54.73;100964.38;5070308;27;46100;-73
2023/04/06 09:16:19;;;;;;;;;16.00;13.75;;;;;13.04;55.25;100978.63;5070576;27;46274;-73
2023/04/06 09:18:45;;;;;;;;;26.50;24.00;;;;;12.93;55.45;100982.06;5069143;27;45924;-74
2023/04/06 09:21:11;;;;;;;;;23.75;23.50;;;;;12.85;56.14;100989.66;5070645;28;46349;-74
2023/04/06 09:23:37;;;;;;;;;26.25;24.25;;;;;12.70;55.95;100989.97;5069817;28;45833;-72
2023/04/06 09:26:14;;;;;;;;;27.75;21.50;;;;;12.52;57.04;100985.09;5070297;27;46054;-74
2023/04/06 09:28:54;;;;;;;;;22.75;20.25;;;;;12.44;56.88;100976.09;5062399;28;45947;-73
2023/04/06 09:31:30;;;;;;;;;28.00;24.25;;;;;12.44;57.28;100979.56;5070005;27;46453;-72
2023/04/06 09:33:56;;;;;;;;;27.75;24.25;;;;;12.49;57.71;100981.88;5082427;27;47942;-72
2023/04/06 09:36:38;;;;;;;;;24.50;22.50;;;;;12.51;57.72;100969.47;5069153;27;45852;-73
2023/04/06 09:39:04;;;;;;;;;22.50;20.00;;;;;12.59;57.49;100981.06;5069199;27;46057;-72
2023/04/06 09:41:32;;;;;;;;;24.00;22.75;;;;;12.63;57.71;100983.50;5069564;27;45785;-73
2023/04/06 09:44:09;;;;;;;;;25.25;20.50;;;;;12.63;57.94;100975.63;5069756;27;45707;-73
2023/04/06 09:46:39;;;;;;;;;20.50;19.00;;;;;12.66;57.95;100976.22;5066712;28;45646;-73
2023/04/06 09:49:06;;;;;;;;;15.50;14.50;;;;;12.61;57.99;100957.31;5068747;27;46026;-73
2023/04/06 09:51:46;;;;;;;;;16.00;15.50;;;;;12.60;58.01;100968.78;5069673;27;45737;-73
2023/04/06 09:54:15;;;;;;;;;19.75;17.00;;;;;12.59;58.92;100980.22;5069309;27;46165;-73
2023/04/06 09:56:47;;;;;;;;;17.75;16.00;;;;;12.54;58.25;100990.25;5061101;28;45769;-73
2023/04/06 09:59:38;;;;;;;;;19.00;18.00;;;;;12.46;59.00;100990.00;5068418;27;45607;-73
2023/04/06 10:02:05;;;;;;;;;15.75;13.00;;;;;12.44;58.70;100997.13;5059706;27;47931;-72
2023/04/06 10:04:47;;;;;;;;;16.75;12.00;;;;;12.38;59.12;100989.69;5069643;27;46669;-72
2023/04/06 10:07:15;;;;;;;;;12.25;11.25;;;;;12.39;59.15;100996.63;5069277;28;45594;-73
2023/04/06 10:09:46;;;;;;;;;15.75;14.75;;;;;12.38;59.07;101000.19;5069120;27;45666;-72
2023/04/06 10:12:13;;;;;;;;;18.00;14.00;;;;;12.34;59.39;100996.13;5068974;27;46958;-72
2023/04/06 10:14:41;;;;;;;;;14.00;13.75;;;;;12.28;59.38;100986.06;5069824;27;46272;-72
2023/04/06 10:17:07;;;;;;;;;15.25;13.25;;;;;12.21;60.00;100975.13;5084622;27;45705;-72
2023/04/06 10:19:55;;;;;;;;;14.50;14.00;;;;;12.29;60.12;100979.84;5068247;27;45671;-73
2023/04/06 10:23:03;;;;;;;;;13.75;13.25;;;;;12.38;60.00;100976.56;5067279;28;45773;-73
2023/04/06 10:25:31;;;;;;;;;7.75;7.75;;;;;12.49;60.30;100987.97;5006373;28;45668;-72
2023/04/06 10:28:07;;;;;;;;;15.00;15.00;;;;;12.54;60.05;100985.84;5006133;28;46276;-73
2023/04/06 10:30:42;;;;;;;;;15.00;11.50;;;;;12.57;60.16;100990.88;5005168;28;46343;-72
2023/04/06 10:33:18;;;;;;;;;16.00;13.75;;;;;12.60;60.23;100987.19;5005706;28;46548;-73
2023/04/06 10:35:45;;;;;;;;;14.75;12.25;;;;;12.61;60.32;100991.50;5006439;28;46218;-73
2023/04/06 10:38:14;;;;;;;;;13.00;12.00;;;;;12.60;60.49;100990.66;5005588;28;45696;-73
2023/04/06 10:40:42;;;;;;;;;15.50;11.50;;;;;12.58;60.71;100994.31;5005944;28;45738;-71
2023/04/06 10:43:12;;;;;;;;;11.25;11.25;;;;;12.58;60.79;100991.69;5005964;28;47585;-73
2023/04/06 10:45:39;;;;;;;;;11.00;10.00;;;;;12.59;60.70;100991.59;5005812;28;46317;-72
2023/04/06 10:48:17;;;;;;;;;11.75;11.75;;;;;12.58;60.84;100995.16;5005474;28;45665;-74
2023/04/06 10:50:53;;;;;;;;;11.75;10.00;;;;;12.59;61.03;101001.25;5006712;28;46209;-73
2023/04/06 10:53:26;;;;;;;;;11.50;9.75;;;;;12.59;61.02;100998.63;5006321;28;46189;-74
2023/04/06 10:55:55;;;;;;;;;14.00;9.75;;;;;12.63;60.75;101012.41;5006657;28;45923;-74
2023/04/06 10:58:20;;;;;;;;;10.25;10.25;;;;;12.65;61.19;100989.47;5005417;28;46005;-72
2023/04/06 11:00:49;;;;;;;;;11.75;11.25;;;;;12.77;60.91;100993.81;5007657;28;45892;-73
2023/04/06 11:03:15;;;;;;;;;11.00;10.75;;;;;12.85;60.52;100992.28;5068741;27;45820;-74
2023/04/06 11:05:48;;;;;;;;;12.25;9.75;;;;;12.95;60.33;100992.47;5068698;27;46146;-73
2023/04/06 11:08:31;;;;;;;;;8.50;7.25;;;;;13.01;60.10;100999.88;5067942;27;45620;-74
2023/04/06 11:11:05;;;;;;;;;14.00;11.25;;;;;13.02;60.05;101005.03;5060448;27;45928;-73
2023/04/06 11:13:54;;;;;;;;;11.00;10.75;;;;;13.07;59.81;100996.78;5084007;27;48135;-73
2023/04/06 11:16:28;;;;;;;;;8.00;7.25;;;;;13.14;59.45;100984.03;5068819;28;46246;-74
2023/04/06 11:18:55;;;;;;;;;8.25;8.25;;;;;13.16;59.13;100990.03;5067639;27;46080;-73
2023/04/06 11:21:36;;;;;;;;;8.25;8.00;;;;;13.12;59.16;100989.41;5084971;27;45867;-74
2023/04/06 11:24:10;;;;;;;;;10.00;8.75;;;;;13.14;58.83;100986.69;5068474;27;46573;-73
2023/04/06 11:26:48;;;;;;;;;8.25;7.50;;;;;13.16;58.52;100990.03;5067981;27;46860;-74
2023/04/06 11:32:27;;;;;;;;;9.25;8.25;;;;;13.14;58.59;100973.53;5007165;28;46052;-72
2023/04/06 11:34:53;;;;;;;;;10.00;7.25;;;;;13.19;58.36;100969.59;5010735;28;46642;-73
2023/04/06 11:37:28;;;;;;;;;7.25;5.50;;;;;13.17;58.12;100965.41;5044859;27;45960;-73
2023/04/06 11:40:09;;;;;;;;;6.50;6.50;;;;;13.33;57.53;100969.34;5071742;28;46087;-74
2023/04/06 11:42:35;;;;;;;;;9.00;8.25;;;;;13.39;57.50;100950.47;5072812;27;45739;-74
2023/04/06 11:45:07;;;;;;;;;7.75;7.00;;;;;13.58;58.06;100944.63;5064624;28;46405;-73
2023/04/06 11:47:37;;;;;;;;;8.75;7.00;;;;;13.75;56.97;100951.22;5072259;27;46427;-73
2023/04/06 11:53:23;;;;;;;;;7.50;5.00;;;;;14.08;56.41;100939.78;4950793;28;45878;-72
2023/04/06 11:55:51;;;;;;;;;4.75;4.75;;;;;14.21;56.19;100938.66;4934673;28;46388;-73
2023/04/06 11:58:17;;;;;;;;;8.75;5.00;;;;;14.30;55.44;100932.63;4930758;28;47200;-73
2023/04/06 12:00:45;;;;;;;;;9.25;8.00;;;;;14.35;55.56;100932.28;4930895;28;46086;-74
2023/04/06 12:03:11;;;;;;;;;6.00;6.00;;;;;14.47;55.58;100933.09;4931777;28;45774;-73
2023/04/06 12:05:38;;;;;;;;;5.00;4.00;;;;;14.51;54.55;100939.81;4945218;28;46051;-73
2023/04/06 12:08:03;;;;;;;;;4.75;4.25;;;;;14.50;54.58;100941.59;4938941;28;46689;-74
2023/04/06 12:10:29;;;;;;;;;4.00;3.75;;;;;14.51;54.10;100935.38;4948278;28;45736;-73
2023/04/06 12:12:54;;;;;;;;;4.50;4.00;;;;;14.54;54.45;100935.09;4930547;28;45999;-73
2023/04/06 12:15:20;;;;;;;;;5.00;4.00;;;;;14.59;53.56;100946.09;4933289;28;47229;-73
2023/04/06 12:17:45;;;;;;;;;4.50;4.50;;;;;14.65;53.43;100918.38;4914355;28;47947;-73
2023/04/06 12:20:11;;;;;;;;;5.00;3.75;;;;;14.72;53.48;100924.84;4942771;28;45780;-73
2023/04/06 12:22:36;;;;;;;;;3.00;3.00;;;;;14.81;53.57;100910.88;4943957;28;45834;-74
2023/04/06 12:25:02;;;;;;;;;4.00;3.00;;;;;14.91;53.44;100910.94;4969913;28;46263;-73
2023/04/06 12:27:27;;;;;;;;;4.00;4.00;;;;;14.99;52.74;100906.69;4969852;28;47076;-73
2023/04/06 12:29:53;;;;;;;;;4.00;3.25;;;;;15.06;52.68;100912.28;4992186;28;45919;-72